createdAt,value
2023-06-21T00:01:36.253Z,3.65
2023-06-21T00:04:02.873Z,4.40
2023-06-21T00:06:32.301Z,3.85
2023-06-21T00:08:59.037Z,3.78
2023-06-21T00:11:25.655Z,3.78
2023-06-21T00:13:56.102Z,3.10
2023-06-21T00:16:25.751Z,3.70
2023-06-21T00:18:52.383Z,2.83
2023-06-21T00:21:18.946Z,4.18
2023-06-21T00:23:45.460Z,4.75
2023-06-21T00:26:11.937Z,4.18
2023-06-21T00:28:38.607Z,4.97
2023-06-21T00:31:09.648Z,4.05
2023-06-21T00:33:36.339Z,4.10
2023-06-21T00:36:03.370Z,3.80
2023-06-21T00:38:35.736Z,4.88
2023-06-21T00:41:08.992Z,4.78
2023-06-21T00:43:35.826Z,3.45
2023-06-21T00:46:02.469Z,3.17
2023-06-21T00:48:30.192Z,4.68
2023-06-21T00:50:57.685Z,4.38
2023-06-21T00:53:27.399Z,4.18
2023-06-21T00:55:54.504Z,4.93
2023-06-21T00:58:21.562Z,4.15
2023-06-21T01:00:51.362Z,5.07
2023-06-21T01:03:23.029Z,3.95
2023-06-21T01:06:25.397Z,4.65
2023-06-21T01:09:22.510Z,4.50
2023-06-21T01:12:01.662Z,5.05
2023-06-21T01:14:35.390Z,4.80
2023-06-21T01:17:04.770Z,3.95
2023-06-21T01:19:47.997Z,2.95
2023-06-21T01:22:39.113Z,3.95
2023-06-21T01:25:08.051Z,4.72
2023-06-21T01:27:37.319Z,4.85
2023-06-21T01:30:06.673Z,4.20
2023-06-21T01:32:33.762Z,4.63
2023-06-21T01:37:28.752Z,4.28
2023-06-21T01:39:55.239Z,4.78
2023-06-21T01:42:21.821Z,4.90
2023-06-21T01:44:49.529Z,4.15
2023-06-21T01:47:16.319Z,4.78
2023-06-21T01:49:43.936Z,4.75
2023-06-21T01:52:11.607Z,5.40
2023-06-21T01:54:42.379Z,5.40
2023-06-21T01:57:12.053Z,5.28
2023-06-21T01:59:39.113Z,5.55
2023-06-21T02:02:06.771Z,4.63
2023-06-21T02:04:34.864Z,4.07
2023-06-21T02:07:03.508Z,5.55
2023-06-21T02:09:31.972Z,6.25
2023-06-21T02:11:59.635Z,5.68
2023-06-21T02:14:26.182Z,4.80
2023-06-21T02:16:52.700Z,4.65
2023-06-21T02:19:19.510Z,4.43
2023-06-21T02:21:46.124Z,5.10
2023-06-21T02:24:12.967Z,5.40
2023-06-21T02:26:39.616Z,3.67
2023-06-21T02:29:06.129Z,5.22
2023-06-21T02:31:34.183Z,5.03
2023-06-21T02:34:00.944Z,4.70
2023-06-21T02:36:27.506Z,4.72
2023-06-21T02:38:54.063Z,5.15
2023-06-21T02:41:20.643Z,6.55
2023-06-21T02:43:47.208Z,4.47
2023-06-21T02:46:13.747Z,5.55
2023-06-21T02:48:40.334Z,5.90
2023-06-21T02:51:06.825Z,5.00
2023-06-21T02:53:33.316Z,5.30
2023-06-21T02:56:00.174Z,4.32
2023-06-21T02:58:27.053Z,6.72
2023-06-21T03:00:53.705Z,7.53
2023-06-21T03:03:20.478Z,6.55
2023-06-21T03:05:47.167Z,6.88
2023-06-21T03:08:13.762Z,6.75
2023-06-21T03:10:40.455Z,6.53
2023-06-21T03:13:07.186Z,8.18
2023-06-21T03:15:33.862Z,6.32
2023-06-21T03:18:00.458Z,7.45
2023-06-21T03:20:27.777Z,6.05
2023-06-21T03:22:54.590Z,7.22
2023-06-21T03:25:21.124Z,7.28
2023-06-21T03:27:48.782Z,6.70
2023-06-21T03:30:15.762Z,7.43
2023-06-21T03:32:48.757Z,6.97
2023-06-21T03:35:19.571Z,6.20
2023-06-21T03:37:47.709Z,5.90
2023-06-21T03:40:15.386Z,7.00
2023-06-21T03:42:43.856Z,6.95
2023-06-21T03:45:11.253Z,6.95
2023-06-21T03:47:40.586Z,6.88
2023-06-21T03:50:11.078Z,6.22
2023-06-21T03:52:37.727Z,7.45
2023-06-21T03:55:05.727Z,7.85
2023-06-21T03:57:32.332Z,7.65
2023-06-21T03:59:58.864Z,6.93
2023-06-21T04:02:25.514Z,7.18
2023-06-21T04:04:52.702Z,6.60
2023-06-21T04:09:49.089Z,5.50
2023-06-21T04:14:42.241Z,6.88
2023-06-21T04:17:08.802Z,6.68
2023-06-21T04:19:35.338Z,6.40
2023-06-21T04:22:01.957Z,5.78
2023-06-21T04:24:28.517Z,6.32
2023-06-21T04:26:56.425Z,8.55
2023-06-21T04:29:23.276Z,5.70
2023-06-21T04:31:53.196Z,8.50
2023-06-21T04:34:20.578Z,6.57
2023-06-21T04:36:48.661Z,6.15
2023-06-21T04:39:17.244Z,6.05
2023-06-21T04:41:46.939Z,4.30
2023-06-21T04:44:18.188Z,6.30
2023-06-21T04:46:48.021Z,6.10
2023-06-21T04:49:16.990Z,7.38
2023-06-21T04:51:44.609Z,7.53
2023-06-21T04:54:11.317Z,5.95
2023-06-21T04:56:37.935Z,5.57
2023-06-21T04:59:04.708Z,7.18
2023-06-21T05:01:32.277Z,6.40
2023-06-21T05:03:58.870Z,5.78
2023-06-21T05:06:28.423Z,6.28
2023-06-21T05:08:55.171Z,7.53
2023-06-21T05:11:21.736Z,7.18
2023-06-21T05:13:48.485Z,7.35
2023-06-21T05:16:15.063Z,5.72
2023-06-21T05:18:41.785Z,7.32
2023-06-21T05:21:08.385Z,8.82
2023-06-21T05:23:35.024Z,7.30
2023-06-21T05:26:04.794Z,6.50
2023-06-21T05:28:31.851Z,5.75
2023-06-21T05:30:58.484Z,6.45
2023-06-21T05:33:25.076Z,6.53
2023-06-21T05:35:51.601Z,6.20
2023-06-21T05:38:18.121Z,6.78
2023-06-21T05:40:44.774Z,6.32
2023-06-21T05:43:11.413Z,4.72
2023-06-21T05:45:39.550Z,4.93
2023-06-21T05:48:06.483Z,5.75
2023-06-21T05:50:33.188Z,5.30
2023-06-21T05:53:00.247Z,5.57
2023-06-21T05:55:27.295Z,5.60
2023-06-21T05:57:53.836Z,7.20
2023-06-21T06:00:20.558Z,6.05
2023-06-21T06:02:47.277Z,4.50
2023-06-21T06:05:13.868Z,5.03
2023-06-21T06:07:40.497Z,5.43
2023-06-21T06:10:07.456Z,5.88
2023-06-21T06:12:34.777Z,4.70
2023-06-21T06:15:01.775Z,5.97
2023-06-21T06:17:28.749Z,5.72
2023-06-21T06:19:55.361Z,5.22
2023-06-21T06:22:22.811Z,5.95
2023-06-21T06:24:49.814Z,5.65
2023-06-21T06:27:16.421Z,4.53
2023-06-21T06:29:42.998Z,4.40
2023-06-21T06:32:09.622Z,7.68
2023-06-21T06:34:36.182Z,5.93
2023-06-21T06:37:13.625Z,6.78
2023-06-21T06:39:41.629Z,6.40
2023-06-21T06:42:09.510Z,5.75
2023-06-21T06:44:36.080Z,6.35
2023-06-21T06:47:02.796Z,4.68
2023-06-21T06:49:29.396Z,4.78
2023-06-21T06:51:56.063Z,5.10
2023-06-21T06:54:22.688Z,5.35
2023-06-21T06:56:49.362Z,5.07
2023-06-21T06:59:16.078Z,5.93
2023-06-21T07:01:42.593Z,5.75
2023-06-21T07:04:09.231Z,5.20
2023-06-21T07:06:36.029Z,5.53
2023-06-21T07:09:03.710Z,5.95
2023-06-21T07:11:32.054Z,4.20
2023-06-21T07:13:58.771Z,4.40
2023-06-21T07:16:25.550Z,4.45
2023-06-21T07:18:52.205Z,4.53
2023-06-21T07:21:21.892Z,3.80
2023-06-21T07:23:50.398Z,4.97
2023-06-21T07:26:17.076Z,5.18
2023-06-21T07:28:44.706Z,5.00
2023-06-21T07:31:11.539Z,6.18
2023-06-21T07:33:38.518Z,5.07
2023-06-21T07:36:06.287Z,4.35
2023-06-21T07:38:32.810Z,4.63
2023-06-21T07:40:59.481Z,4.03
2023-06-21T07:43:26.118Z,4.03
2023-06-21T07:45:59.879Z,4.60
2023-06-21T07:48:39.129Z,4.22
2023-06-21T07:51:05.662Z,3.47
2023-06-21T07:53:33.140Z,4.47
2023-06-21T07:56:16.091Z,3.65
2023-06-21T07:58:43.732Z,4.63
2023-06-21T08:01:10.713Z,4.10
2023-06-21T08:03:37.364Z,4.32
2023-06-21T08:06:04.049Z,4.80
2023-06-21T08:08:30.562Z,3.63
2023-06-21T08:10:57.418Z,3.20
2023-06-21T08:13:24.291Z,4.55
2023-06-21T08:15:52.308Z,3.03
2023-06-21T08:18:18.915Z,4.40
2023-06-21T08:20:45.522Z,3.33
2023-06-21T08:23:12.074Z,3.33
2023-06-21T08:25:38.599Z,4.07
2023-06-21T08:28:05.636Z,3.42
2023-06-21T08:30:32.295Z,3.20
2023-06-21T08:32:58.810Z,3.83
2023-06-21T08:35:25.463Z,3.25
2023-06-21T08:37:57.454Z,3.20
2023-06-21T08:40:32.772Z,3.63
2023-06-21T08:43:00.665Z,3.05
2023-06-21T08:45:27.828Z,3.50
2023-06-21T08:47:59.631Z,3.65
2023-06-21T08:50:26.427Z,2.85
2023-06-21T08:52:54.843Z,2.97
2023-06-21T08:55:24.732Z,3.47
2023-06-21T08:58:03.528Z,3.67
2023-06-21T09:00:35.167Z,3.15
2023-06-21T09:03:16.380Z,1.80
2023-06-21T09:05:53.470Z,3.72
2023-06-21T09:08:20.435Z,3.28
2023-06-21T09:10:51.629Z,3.70
2023-06-21T09:13:23.308Z,3.03
2023-06-21T09:15:51.484Z,2.75
2023-06-21T09:18:19.704Z,3.08
2023-06-21T09:20:48.689Z,3.70
2023-06-21T09:23:15.416Z,3.88
2023-06-21T09:25:43.376Z,2.47
2023-06-21T09:28:10.024Z,2.58
2023-06-21T09:30:39.044Z,2.75
2023-06-21T09:33:06.814Z,2.53
2023-06-21T09:35:34.066Z,3.03
2023-06-21T09:40:27.099Z,3.03
2023-06-21T09:42:54.568Z,3.00
2023-06-21T09:45:21.464Z,3.03
2023-06-21T09:47:48.292Z,2.72
2023-06-21T09:50:15.130Z,2.47
2023-06-21T09:52:44.457Z,2.40
2023-06-21T09:55:15.514Z,2.55
2023-06-21T09:57:42.266Z,2.47
2023-06-21T10:00:09.429Z,2.60
2023-06-21T10:02:42.687Z,2.17
2023-06-21T10:05:20.380Z,2.75
2023-06-21T10:07:47.849Z,1.80
2023-06-21T10:10:15.442Z,2.45
2023-06-21T10:12:56.384Z,2.03
2023-06-21T10:15:23.781Z,1.70
2023-06-21T10:17:59.910Z,1.77
2023-06-21T10:20:32.366Z,2.08
2023-06-21T10:23:02.434Z,2.15
2023-06-21T10:25:29.830Z,1.98
2023-06-21T10:27:59.722Z,2.53
2023-06-21T10:30:28.422Z,1.73
2023-06-21T10:32:58.969Z,1.83
2023-06-21T10:35:27.373Z,2.05
2023-06-21T10:38:05.011Z,2.13
2023-06-21T10:40:34.128Z,2.08
2023-06-21T10:43:00.903Z,2.00
2023-06-21T10:45:30.085Z,2.20
2023-06-21T10:47:57.757Z,2.15
2023-06-21T10:50:25.856Z,2.47
2023-06-21T10:52:55.124Z,2.33
2023-06-21T10:55:24.736Z,1.88
2023-06-21T10:57:56.717Z,2.63
2023-06-21T11:00:25.266Z,2.05
2023-06-21T11:02:53.200Z,1.88
2023-06-21T11:05:20.963Z,1.52
2023-06-21T11:07:58.460Z,1.70
2023-06-21T11:10:43.790Z,1.70
2023-06-21T11:13:12.089Z,2.30
2023-06-21T11:15:44.010Z,1.88
2023-06-21T11:18:11.862Z,1.70
2023-06-21T11:20:52.868Z,1.58
2023-06-21T11:23:25.028Z,1.77
2023-06-21T11:26:16.023Z,1.75
2023-06-21T11:28:48.226Z,1.67
2023-06-21T11:31:24.074Z,2.20
2023-06-21T11:33:57.507Z,1.80
2023-06-21T11:36:32.494Z,1.30
2023-06-21T11:39:20.602Z,1.70
2023-06-21T11:41:48.228Z,1.05
2023-06-21T11:44:20.935Z,1.35
2023-06-21T11:46:48.548Z,1.48
2023-06-21T11:49:15.205Z,1.67
2023-06-21T11:52:04.544Z,1.50
2023-06-21T11:54:33.234Z,1.90
2023-06-21T11:56:59.890Z,1.90
2023-06-21T11:59:27.530Z,1.67
2023-06-21T12:01:54.604Z,1.65
2023-06-21T12:04:28.387Z,2.05
2023-06-21T12:06:58.972Z,1.38
2023-06-21T12:09:25.833Z,1.60
2023-06-21T12:11:52.593Z,1.20
2023-06-21T12:14:20.655Z,0.93
2023-06-21T12:16:50.761Z,0.85
2023-06-21T12:19:17.443Z,0.90
2023-06-21T12:21:44.053Z,0.98
2023-06-21T12:24:10.631Z,1.13
2023-06-21T12:26:51.408Z,1.17
2023-06-21T12:29:18.053Z,1.35
2023-06-21T12:31:44.859Z,1.15
2023-06-21T12:34:16.774Z,1.30
2023-06-21T12:36:46.643Z,1.25
2023-06-21T12:39:15.579Z,0.95
2023-06-21T12:41:44.399Z,1.08
2023-06-21T12:44:21.799Z,0.70
2023-06-21T12:46:49.074Z,0.85
2023-06-21T12:49:15.972Z,0.80
2023-06-21T12:54:24.008Z,0.80
2023-06-21T12:56:54.180Z,0.60
2023-06-21T12:59:21.053Z,0.88
2023-06-21T13:01:47.714Z,0.50
2023-06-21T13:04:16.361Z,0.70
2023-06-21T13:06:43.614Z,1.05
2023-06-21T13:09:11.427Z,1.13
2023-06-21T13:11:39.266Z,0.95
2023-06-21T13:14:07.050Z,0.98
2023-06-21T13:16:33.957Z,0.82
2023-06-21T13:21:27.124Z,0.80
2023-06-21T13:23:55.367Z,0.80
2023-06-21T13:26:24.727Z,1.02
2023-06-21T13:28:51.954Z,0.85
2023-06-21T13:31:22.718Z,1.35
2023-06-21T13:33:50.746Z,1.05
2023-06-21T13:36:17.494Z,1.00
2023-06-21T13:38:44.409Z,0.98
2023-06-21T13:41:10.975Z,1.05
2023-06-21T13:43:37.584Z,0.90
2023-06-21T13:46:04.722Z,1.00
2023-06-21T13:48:31.502Z,1.25
2023-06-21T13:50:58.130Z,1.20
2023-06-21T13:53:24.761Z,1.23
2023-06-21T13:55:51.444Z,1.23
2023-06-21T13:58:18.278Z,1.40
2023-06-21T14:00:44.910Z,1.15
2023-06-21T14:03:11.617Z,1.30
2023-06-21T14:08:05.238Z,1.27
2023-06-21T14:10:33.262Z,1.73
2023-06-21T14:12:59.836Z,1.88
2023-06-21T14:15:26.629Z,3.35
2023-06-21T14:17:53.442Z,2.28
2023-06-21T14:20:20.068Z,2.63
2023-06-21T14:22:46.575Z,3.42
2023-06-21T14:25:13.230Z,3.67
2023-06-21T14:27:39.863Z,3.38
2023-06-21T14:30:07.035Z,3.10
2023-06-21T14:32:34.357Z,3.40
2023-06-21T14:35:01.213Z,2.50
2023-06-21T14:37:28.448Z,3.80
2023-06-21T14:39:55.992Z,3.42
2023-06-21T14:42:24.067Z,3.25
2023-06-21T14:44:51.231Z,3.35
2023-06-21T14:47:17.818Z,2.80
2023-06-21T14:49:44.772Z,2.05
2023-06-21T14:52:13.022Z,3.58
2023-06-21T14:54:40.156Z,3.47
2023-06-21T14:59:33.163Z,3.05
2023-06-21T15:01:59.782Z,3.28
2023-06-21T15:04:26.388Z,3.00
2023-06-21T15:06:52.962Z,2.75
2023-06-21T15:09:19.517Z,3.60
2023-06-21T15:11:46.102Z,2.72
2023-06-21T15:14:12.644Z,3.50
2023-06-21T15:16:46.900Z,2.72
2023-06-21T15:19:13.790Z,3.88
2023-06-21T15:21:40.641Z,2.88
2023-06-21T15:24:07.869Z,3.67
2023-06-21T15:26:35.303Z,2.53
2023-06-21T15:29:02.724Z,3.63
2023-06-21T15:31:29.380Z,3.00
2023-06-21T15:33:55.974Z,3.72
2023-06-21T15:36:22.617Z,3.15
2023-06-21T15:38:49.161Z,3.25
2023-06-21T15:41:16.210Z,3.45
2023-06-21T15:46:09.673Z,3.20
2023-06-21T15:48:36.338Z,3.03
2023-06-21T15:51:02.945Z,3.53
2023-06-21T15:53:29.496Z,3.22
2023-06-21T15:55:56.041Z,2.97
2023-06-21T15:58:22.569Z,3.22
2023-06-21T16:00:49.117Z,3.72
2023-06-21T16:03:15.847Z,3.85
2023-06-21T16:05:42.468Z,3.10
2023-06-21T16:08:09.078Z,2.70
2023-06-21T16:10:35.621Z,2.60
2023-06-21T16:13:04.349Z,2.85
2023-06-21T16:15:31.316Z,2.92
2023-06-21T16:17:58.312Z,2.88
2023-06-21T16:20:24.943Z,2.90
2023-06-21T16:22:51.460Z,3.28
2023-06-21T16:25:18.085Z,2.70
2023-06-21T16:27:44.669Z,2.90
2023-06-21T16:30:13.595Z,2.75
2023-06-21T16:32:40.167Z,2.38
2023-06-21T16:35:07.162Z,2.60
2023-06-21T16:40:00.380Z,2.55
2023-06-21T16:42:30.284Z,2.47
2023-06-21T16:44:57.195Z,2.20
2023-06-21T16:47:24.458Z,2.25
2023-06-21T16:49:51.089Z,2.20
2023-06-21T16:52:17.714Z,2.03
2023-06-21T16:54:44.418Z,2.13
2023-06-21T16:57:17.702Z,2.28
2023-06-21T16:59:45.439Z,2.03
2023-06-21T17:04:38.618Z,1.90
2023-06-21T17:09:32.080Z,2.08
2023-06-21T17:11:58.807Z,1.90
2023-06-21T17:14:25.385Z,2.22
2023-06-21T17:16:52.041Z,1.98
2023-06-21T17:19:19.283Z,2.00
2023-06-21T17:21:45.826Z,1.85
2023-06-21T17:24:12.323Z,1.75
2023-06-21T17:26:38.868Z,2.30
2023-06-21T17:29:05.466Z,2.45
2023-06-21T17:31:32.206Z,2.15
2023-06-21T17:33:58.866Z,1.65
2023-06-21T17:36:25.479Z,2.35
2023-06-21T17:38:52.080Z,2.05
2023-06-21T17:41:18.569Z,2.00
2023-06-21T17:43:45.120Z,1.95
2023-06-21T17:46:11.632Z,1.45
2023-06-21T17:48:39.608Z,1.38
2023-06-21T17:51:06.416Z,1.63
2023-06-21T17:53:33.005Z,1.42
2023-06-21T17:55:59.678Z,1.70
2023-06-21T17:58:26.282Z,1.80
2023-06-21T18:00:53.239Z,1.63
2023-06-21T18:03:20.228Z,1.75
2023-06-21T18:05:46.950Z,1.70
2023-06-21T18:08:13.488Z,1.40
2023-06-21T18:10:40.050Z,1.20
2023-06-21T18:13:07.052Z,1.30
2023-06-21T18:18:00.358Z,1.40
2023-06-21T18:20:27.205Z,1.05
2023-06-21T18:22:55.789Z,1.20
2023-06-21T18:25:22.445Z,0.82
2023-06-21T18:27:49.895Z,1.00
2023-06-21T18:30:16.630Z,1.35
2023-06-21T18:32:43.306Z,1.20
2023-06-21T18:35:10.637Z,1.25
2023-06-21T18:37:44.090Z,1.35
2023-06-21T18:40:11.018Z,1.25
2023-06-21T18:42:38.933Z,0.90
2023-06-21T18:45:07.062Z,0.90
2023-06-21T18:47:33.747Z,1.00
2023-06-21T18:50:00.348Z,0.85
2023-06-21T18:52:27.130Z,0.88
2023-06-21T18:54:54.245Z,1.08
2023-06-21T18:59:48.873Z,0.90
2023-06-21T19:02:15.531Z,1.10
2023-06-21T19:04:44.334Z,0.90
2023-06-21T19:07:11.276Z,0.90
2023-06-21T19:09:37.844Z,0.90
2023-06-21T19:12:04.631Z,1.10
2023-06-21T19:14:31.217Z,1.00
2023-06-21T19:16:57.792Z,0.90
2023-06-21T19:19:24.283Z,1.00
2023-06-21T19:21:50.852Z,0.80
2023-06-21T19:24:17.413Z,0.90
2023-06-21T19:26:45.902Z,0.98
2023-06-21T19:29:12.536Z,0.80
2023-06-21T19:31:39.225Z,1.13
2023-06-21T19:34:09.124Z,1.08
2023-06-21T19:36:35.801Z,1.10
2023-06-21T19:39:02.361Z,1.10
2023-06-21T19:41:28.928Z,1.05
2023-06-21T19:43:55.535Z,0.98
2023-06-21T19:46:22.588Z,1.75
2023-06-21T19:51:15.863Z,28.42
2023-06-21T19:53:42.368Z,92.57
2023-06-21T19:56:09.214Z,82.65
2023-06-21T19:58:35.797Z,81.60
2023-06-21T20:01:03.520Z,76.57
2023-06-21T20:03:30.221Z,68.55
2023-06-21T20:05:56.862Z,73.93
2023-06-21T20:08:23.934Z,84.05
2023-06-21T20:10:50.561Z,82.25
2023-06-21T20:13:17.112Z,74.40
2023-06-21T20:15:44.808Z,51.00
2023-06-21T20:18:11.431Z,73.95
2023-06-21T20:20:38.219Z,39.75
2023-06-21T20:23:04.934Z,36.70
2023-06-21T20:25:31.711Z,57.83
2023-06-21T20:27:58.229Z,41.20
2023-06-21T20:30:25.183Z,35.35
2023-06-21T20:32:51.802Z,60.13
2023-06-21T20:35:18.464Z,37.83
2023-06-21T20:37:45.020Z,60.65
2023-06-21T20:40:15.604Z,33.90
2023-06-21T20:42:42.620Z,35.65
2023-06-21T20:45:22.262Z,51.15
2023-06-21T20:47:52.036Z,34.58
2023-06-21T20:50:18.712Z,33.17
2023-06-21T20:52:45.630Z,25.55
2023-06-21T20:55:12.288Z,26.30
2023-06-21T20:57:38.852Z,35.75
2023-06-21T21:00:11.950Z,16.30
2023-06-21T21:02:39.009Z,8.95
2023-06-21T21:07:32.166Z,12.45
2023-06-21T21:09:58.734Z,17.05
2023-06-21T21:12:27.363Z,6.97
2023-06-21T21:14:54.774Z,14.93
2023-06-21T21:17:21.797Z,8.35
2023-06-21T21:19:48.368Z,4.30
2023-06-21T21:22:15.318Z,44.17
2023-06-21T21:24:41.877Z,13.88
2023-06-21T21:27:08.417Z,15.18
2023-06-21T21:29:34.947Z,20.55
2023-06-21T21:32:03.391Z,11.07
2023-06-21T21:34:30.672Z,9.88
2023-06-21T21:39:26.877Z,6.13
2023-06-21T21:41:53.603Z,8.85
2023-06-21T21:44:20.920Z,4.47
2023-06-21T21:46:48.542Z,7.85
2023-06-21T21:49:16.263Z,13.63
2023-06-21T21:51:43.034Z,9.23
2023-06-21T21:54:09.740Z,20.17
2023-06-21T21:56:36.344Z,18.83
2023-06-21T21:59:02.994Z,15.70
2023-06-21T22:01:29.579Z,6.97
2023-06-21T22:03:56.464Z,4.10
2023-06-21T22:06:23.195Z,13.20
2023-06-21T22:08:49.764Z,13.35
2023-06-21T22:11:16.943Z,7.38
2023-06-21T22:16:13.509Z,7.97
2023-06-21T22:18:41.216Z,6.47
2023-06-21T22:21:10.231Z,3.22
2023-06-21T22:23:36.834Z,2.40
2023-06-21T22:26:05.373Z,1.92
2023-06-21T22:28:32.349Z,2.28
2023-06-21T22:30:59.104Z,3.17
2023-06-21T22:33:25.736Z,2.22
2023-06-21T22:35:52.604Z,2.20
2023-06-21T22:38:19.238Z,2.00
2023-06-21T22:40:46.042Z,2.38
2023-06-21T22:43:12.615Z,3.55
2023-06-21T22:45:42.931Z,5.05
2023-06-21T22:48:09.801Z,4.20
2023-06-21T22:50:36.807Z,3.13
2023-06-21T22:53:05.121Z,1.98
2023-06-21T22:55:32.025Z,2.15
2023-06-21T22:58:00.256Z,2.05
2023-06-21T23:00:27.091Z,3.63
2023-06-21T23:02:53.965Z,6.65
2023-06-21T23:05:20.862Z,2.67
2023-06-21T23:07:47.570Z,3.08
2023-06-21T23:10:14.119Z,2.72
2023-06-21T23:12:45.771Z,4.00
2023-06-21T23:15:15.374Z,5.40
2023-06-21T23:17:43.558Z,2.63
2023-06-21T23:20:11.955Z,4.65
2023-06-21T23:22:39.964Z,3.42
2023-06-21T23:25:13.519Z,2.40
2023-06-21T23:27:43.105Z,2.28
2023-06-21T23:30:20.615Z,2.63
2023-06-21T23:32:58.522Z,2.65
2023-06-21T23:35:25.150Z,5.97
2023-06-21T23:37:55.349Z,3.63
2023-06-21T23:40:22.078Z,3.65
2023-06-21T23:42:52.749Z,4.82
2023-06-21T23:45:19.877Z,2.58
2023-06-21T23:47:46.469Z,4.75
2023-06-21T23:50:13.214Z,4.55
2023-06-21T23:52:39.853Z,3.58
2023-06-21T23:55:07.249Z,2.60
2023-06-21T23:57:34.098Z,3.95
